Time;durP1;ratioP1;P1;durP2;ratioP2;P2;SDS_P1;SDS_P2;PMS_P1;PMS_P2;Temp;Humidity;BMP_temperature;BMP_pressure;BME280_temperature;BME280_humidity;BME280_pressure;Samples;Min_cycle;Max_cycle;Signal;HPM_P1;HPM_P2
2021/10/31 00:01:35;;;;;;;2.08;1.88;;;5.70;99.90;;;;;;5156589;27;20019;-66
2021/10/31 00:04:00;;;;;;;1.60;1.50;;;5.70;99.90;;;;;;5156422;27;20398;-66
2021/10/31 00:06:26;;;;;;;2.30;2.10;;;5.80;99.90;;;;;;5156426;27;20015;-66
2021/10/31 00:08:52;;;;;;;1.50;1.40;;;5.80;99.90;;;;;;5156426;27;20045;-66
2021/10/31 00:11:19;;;;;;;1.95;1.80;;;5.80;99.90;;;;;;5156282;27;20022;-66
2021/10/31 00:13:45;;;;;;;2.13;1.92;;;5.90;99.90;;;;;;5156289;27;20494;-66
2021/10/31 00:16:11;;;;;;;1.90;1.60;;;5.90;99.90;;;;;;5156157;27;20023;-66
2021/10/31 00:18:37;;;;;;;1.65;1.50;;;5.90;99.90;;;;;;5156444;27;20481;-66
2021/10/31 00:21:02;;;;;;;2.25;1.55;;;5.90;99.90;;;;;;5156145;27;20474;-66
2021/10/31 00:23:28;;;;;;;1.67;1.58;;;5.90;99.90;;;;;;5156125;27;20059;-66
2021/10/31 00:25:54;;;;;;;1.70;1.60;;;5.90;99.90;;;;;;5156430;27;20035;-66
2021/10/31 00:28:20;;;;;;;2.03;1.60;;;5.80;99.90;;;;;;5156120;27;20021;-66
2021/10/31 00:30:45;;;;;;;1.90;1.70;;;5.80;99.90;;;;;;5156133;27;20034;-66
2021/10/31 00:33:12;;;;;;;2.33;1.80;;;5.80;99.90;;;;;;5155937;27;20026;-66
2021/10/31 00:35:38;;;;;;;2.78;1.77;;;5.70;99.90;;;;;;5156054;27;20493;-65
2021/10/31 00:38:04;;;;;;;1.40;1.30;;;5.70;99.90;;;;;;5156251;27;20023;-66
2021/10/31 00:40:31;;;;;;;1.55;1.45;;;5.70;99.90;;;;;;5155252;27;20031;-66
2021/10/31 00:42:57;;;;;;;1.92;1.77;;;5.70;99.90;;;;;;5154574;27;20018;-66
2021/10/31 00:45:23;;;;;;;2.92;1.45;;;5.60;99.90;;;;;;5155572;27;20168;-66
2021/10/31 00:47:49;;;;;;;1.70;1.60;;;5.60;99.90;;;;;;5155705;27;20023;-66
2021/10/31 00:50:18;;;;;;;1.52;1.17;;;5.50;99.90;;;;;;5155807;27;20037;-66
2021/10/31 00:52:43;;;;;;;2.15;1.30;;;5.50;99.90;;;;;;5155517;27;20101;-66
2021/10/31 00:55:09;;;;;;;1.70;1.60;;;5.40;99.90;;;;;;5155633;27;20106;-66
2021/10/31 00:57:36;;;;;;;1.50;1.40;;;5.40;99.90;;;;;;5155534;27;20023;-66
2021/10/31 01:00:05;;;;;;;2.42;1.55;;;5.30;99.90;;;;;;5155149;27;20051;-66
2021/10/31 01:02:31;;;;;;;1.55;1.45;;;5.30;99.90;;;;;;5155259;27;20035;-65
2021/10/31 01:05:01;;;;;;;1.92;1.50;;;5.30;99.90;;;;;;5155526;27;20117;-66
2021/10/31 01:07:49;;;;;;;1.30;1.20;;;5.30;99.90;;;;;;5155105;27;20019;-66
2021/10/31 01:10:40;;;;;;;1.25;1.17;;;5.20;99.90;;;;;;5155117;27;20033;-66
2021/10/31 01:13:33;;;;;;;1.77;1.60;;;5.30;99.90;;;;;;5155175;27;20026;-66
2021/10/31 01:16:13;;;;;;;1.40;1.30;;;5.30;99.90;;;;;;5155092;27;20034;-66
2021/10/31 01:19:01;;;;;;;1.98;1.55;;;5.30;99.90;;;;;;5155144;27;20042;-66
2021/10/31 01:21:44;;;;;;;2.17;1.50;;;5.30;99.90;;;;;;5154796;27;20027;-67
2021/10/31 01:24:24;;;;;;;1.52;1.25;;;5.20;99.90;;;;;;5154995;27;20023;-66
2021/10/31 01:27:02;;;;;;;1.40;1.30;;;5.20;99.90;;;;;;5155053;27;20106;-66
2021/10/31 01:30:02;;;;;;;2.50;1.20;;;5.20;99.90;;;;;;5154674;27;20055;-65
2021/10/31 01:32:53;;;;;;;1.30;1.20;;;5.10;99.90;;;;;;5154754;27;20029;-65
2021/10/31 01:35:37;;;;;;;;;;;5.10;99.90;;;;;;5155095;27;20026;-66
2021/10/31 01:38:16;;;;;;;1.83;1.40;;;5.10;99.90;;;;;;5154937;27;20299;-65
2021/10/31 01:41:01;;;;;;;1.55;1.10;;;5.00;99.90;;;;;;5154678;27;20494;-66
2021/10/31 01:43:49;;;;;;;1.63;1.15;;;5.00;99.90;;;;;;5154598;27;20481;-65
2021/10/31 01:46:43;;;;;;;2.63;1.23;;;5.00;99.90;;;;;;5154643;27;20155;-66
2021/10/31 01:49:38;;;;;;;1.30;1.20;;;5.00;99.90;;;;;;5154792;27;20398;-66
2021/10/31 01:52:12;;;;;;;3.58;1.30;;;5.00;99.90;;;;;;5153662;27;20053;-66
2021/10/31 01:54:45;;;;;;;1.40;1.30;;;5.00;99.90;;;;;;5154334;27;20015;-66
2021/10/31 01:57:16;;;;;;;5.30;1.60;;;5.00;99.90;;;;;;5154736;27;20418;-65
2021/10/31 01:59:46;;;;;;;1.25;1.15;;;5.00;99.90;;;;;;5152796;27;20558;-65
2021/10/31 02:02:13;;;;;;;1.40;1.30;;;4.90;99.90;;;;;;5154346;27;20549;-65
2021/10/31 02:04:40;;;;;;;1.38;1.27;;;4.90;99.90;;;;;;5154334;27;20489;-65
2021/10/31 02:07:08;;;;;;;2.75;1.10;;;4.90;99.90;;;;;;5154374;27;20019;-65
2021/10/31 02:09:34;;;;;;;1.67;1.48;;;4.90;99.90;;;;;;5154066;27;20026;-65
2021/10/31 02:12:02;;;;;;;2.55;1.20;;;4.90;99.90;;;;;;5152896;27;20029;-65
2021/10/31 02:14:30;;;;;;;1.73;1.27;;;4.90;99.90;;;;;;5154229;27;20031;-65
2021/10/31 02:16:58;;;;;;;1.52;1.20;;;4.90;99.90;;;;;;5154319;27;20499;-65
2021/10/31 02:19:39;;;;;;;1.35;1.23;;;4.80;99.90;;;;;;5153940;27;20439;-65
2021/10/31 02:22:08;;;;;;;1.85;1.27;;;4.80;99.90;;;;;;5153928;27;20021;-65
2021/10/31 02:53:48;;;;;;;2.30;1.42;;;4.60;99.90;;;;;;5153266;27;20060;-66
2021/10/31 02:56:22;;;;;;;1.55;1.42;;;4.50;99.90;;;;;;5153876;27;20023;-66
2021/10/31 02:59:23;;;;;;;1.65;1.55;;;4.50;99.90;;;;;;5153315;27;20046;-66
2021/10/31 03:01:50;;;;;;;1.60;1.45;;;4.50;99.90;;;;;;5149103;27;20058;-66
2021/10/31 03:04:17;;;;;;;1.77;1.60;;;4.40;99.90;;;;;;5156393;27;20355;-66
2021/10/31 03:06:44;;;;;;;1.92;1.70;;;4.40;99.90;;;;;;5157463;27;20102;-64
2021/10/31 03:09:11;;;;;;;2.25;1.65;;;4.50;99.90;;;;;;5157881;27;20140;-64
2021/10/31 03:11:37;;;;;;;1.65;1.55;;;4.40;99.90;;;;;;5157351;27;20393;-64
2021/10/31 03:14:04;;;;;;;1.60;1.50;;;4.30;99.90;;;;;;5157645;27;20100;-64
2021/10/31 03:16:30;;;;;;;2.08;1.70;;;4.20;99.90;;;;;;5157418;27;20103;-65
2021/10/31 03:18:55;;;;;;;1.98;1.80;;;4.20;99.90;;;;;;5157322;27;20489;-64
2021/10/31 03:21:21;;;;;;;1.50;1.40;;;4.20;99.90;;;;;;5157696;27;20061;-64
2021/10/31 03:23:47;;;;;;;1.80;1.50;;;4.20;99.90;;;;;;5157249;27;20023;-64
2021/10/31 03:26:12;;;;;;;1.67;1.45;;;4.20;99.90;;;;;;5157396;27;20027;-64
2021/10/31 03:28:38;;;;;;;1.60;1.50;;;4.20;99.90;;;;;;5155937;27;20081;-63
2021/10/31 03:31:04;;;;;;;1.40;1.30;;;4.20;99.90;;;;;;5157222;27;20015;-63
2021/10/31 03:33:29;;;;;;;1.50;1.40;;;4.20;99.90;;;;;;5157198;27;20559;-63
2021/10/31 03:35:57;;;;;;;1.33;1.23;;;4.20;99.90;;;;;;5157085;27;20050;-63
2021/10/31 03:38:23;;;;;;;1.25;1.15;;;4.10;99.90;;;;;;5156931;27;20545;-63
2021/10/31 03:40:49;;;;;;;2.15;1.60;;;4.10;99.90;;;;;;5157092;27;20110;-64
2021/10/31 03:43:15;;;;;;;1.38;1.25;;;4.10;99.90;;;;;;5157214;27;20055;-64
2021/10/31 03:45:41;;;;;;;2.35;1.30;;;4.00;99.90;;;;;;5156776;27;20033;-64
2021/10/31 03:48:07;;;;;;;2.80;1.60;;;4.00;99.90;;;;;;5156828;27;20019;-64
2021/10/31 03:50:33;;;;;;;1.80;1.50;;;4.00;99.90;;;;;;5156634;27;20031;-64
2021/10/31 03:52:59;;;;;;;1.65;1.20;;;4.00;99.90;;;;;;5156794;27;20474;-64
2021/10/31 03:55:24;;;;;;;1.33;1.23;;;4.00;99.90;;;;;;5156957;27;20659;-64
2021/10/31 03:57:51;;;;;;;1.50;1.30;;;4.00;99.90;;;;;;5156604;27;20022;-64
2021/10/31 04:00:17;;;;;;;1.55;1.30;;;4.00;99.90;;;;;;5156568;27;20053;-63
2021/10/31 04:02:44;;;;;;;1.50;1.33;;;3.90;99.90;;;;;;5156362;27;20053;-64
2021/10/31 04:05:11;;;;;;;2.08;1.30;;;3.90;99.90;;;;;;5156574;27;20022;-64
2021/10/31 04:07:37;;;;;;;1.88;1.27;;;3.90;99.90;;;;;;5156355;27;20027;-64
2021/10/31 04:10:04;;;;;;;5.60;1.80;;;3.90;99.90;;;;;;5156424;27;20030;-64
2021/10/31 04:12:30;;;;;;;1.52;1.42;;;3.90;99.90;;;;;;5156748;27;20023;-63
2021/10/31 04:14:55;;;;;;;1.70;1.40;;;3.90;99.90;;;;;;5155505;27;20026;-64
2021/10/31 04:17:21;;;;;;;3.05;1.45;;;3.90;99.90;;;;;;5156584;27;20031;-64
2021/10/31 04:19:47;;;;;;;1.30;1.20;;;3.90;99.90;;;;;;5155980;27;20035;-64
2021/10/31 04:22:14;;;;;;;1.45;1.35;;;3.90;99.90;;;;;;5156207;27;20019;-64
2021/10/31 04:24:39;;;;;;;2.00;1.10;;;3.80;99.90;;;;;;5156060;27;20114;-63
2021/10/31 04:27:05;;;;;;;1.92;1.50;;;3.80;99.90;;;;;;5155999;27;20046;-63
2021/10/31 04:29:31;;;;;;;1.92;1.73;;;3.80;99.90;;;;;;5156069;27;20485;-64
2021/10/31 04:31:57;;;;;;;4.30;1.40;;;3.70;99.90;;;;;;5155777;27;20069;-63
2021/10/31 04:34:23;;;;;;;2.30;1.40;;;3.60;99.90;;;;;;5155930;27;20027;-64
2021/10/31 04:36:50;;;;;;;1.50;1.40;;;3.60;99.90;;;;;;5155770;27;20054;-63
2021/10/31 04:39:17;;;;;;;1.67;1.58;;;3.60;99.90;;;;;;5156062;27;20418;-64
2021/10/31 04:41:46;;;;;;;1.90;1.50;;;3.60;99.90;;;;;;5155718;27;20101;-64
2021/10/31 04:44:12;;;;;;;2.08;1.70;;;3.60;99.90;;;;;;5155804;27;20034;-63
2021/10/31 04:46:38;;;;;;;1.60;1.50;;;3.40;99.90;;;;;;5155606;27;20022;-63
2021/10/31 04:49:04;;;;;;;1.45;1.35;;;3.40;99.90;;;;;;5156082;27;20026;-64
2021/10/31 04:51:29;;;;;;;1.70;1.60;;;3.40;99.90;;;;;;5155695;27;20022;-64
2021/10/31 04:53:55;;;;;;;2.50;1.80;;;3.20;99.90;;;;;;5155937;27;20022;-64
2021/10/31 04:56:23;;;;;;;2.45;1.73;;;3.10;99.90;;;;;;5155656;27;20359;-64
2021/10/31 04:58:52;;;;;;;2.10;1.73;;;3.20;99.90;;;;;;5155144;27;20137;-64
2021/10/31 05:01:19;;;;;;;1.90;1.70;;;3.20;99.90;;;;;;5155716;27;20060;-63
2021/10/31 05:03:45;;;;;;;4.45;1.90;;;3.20;99.90;;;;;;5154050;27;20265;-64
2021/10/31 05:06:11;;;;;;;2.00;1.70;;;3.10;99.90;;;;;;5155262;27;20027;-63
2021/10/31 05:08:37;;;;;;;3.80;1.92;;;3.10;99.90;;;;;;5153867;27;20030;-64
2021/10/31 05:11:03;;;;;;;2.95;2.20;;;3.10;99.90;;;;;;5135626;27;20035;-64
2021/10/31 05:13:29;;;;;;;1.10;1.00;;;3.20;99.90;;;;;;5134519;27;20022;-68
2021/10/31 05:15:56;;;;;;;2.22;2.03;;;3.30;99.90;;;;;;5134160;27;20379;-64
2021/10/31 05:18:22;;;;;;;1.92;1.73;;;6.00;99.90;;;;;;5134144;27;20031;-65
2021/10/31 05:20:47;;;;;;;1.60;1.50;;;6.40;99.90;;;;;;5136260;27;20023;-65
2021/10/31 05:23:13;;;;;;;2.60;1.60;;;5.90;99.90;;;;;;5151160;27;20027;-63
2021/10/31 05:25:39;;;;;;;1.98;1.67;;;5.30;99.90;;;;;;5145480;27;20474;-63
2021/10/31 05:28:04;;;;;;;4.03;1.60;;;4.90;99.90;;;;;;5142992;27;20054;-63
2021/10/31 05:30:30;;;;;;;1.90;1.73;;;4.60;99.90;;;;;;5143183;27;20466;-65
2021/10/31 05:32:56;;;;;;;2.00;1.80;;;4.40;99.90;;;;;;5143863;27;20022;-65
2021/10/31 05:35:22;;;;;;;1.75;1.65;;;4.20;99.90;;;;;;5113887;27;20042;-65
2021/10/31 05:37:54;;;;;;;1.83;1.73;;;4.00;99.90;;;;;;5122679;27;20022;-65
2021/10/31 05:40:20;;;;;;;1.95;1.83;;;4.00;99.90;;;;;;5133440;27;20036;-64
2021/10/31 05:42:45;;;;;;;3.15;1.58;;;3.90;99.90;;;;;;5145851;27;20382;-64
2021/10/31 05:45:11;;;;;;;1.65;1.45;;;3.80;99.90;;;;;;5154732;27;20065;-63
2021/10/31 05:47:39;;;;;;;1.83;1.52;;;3.70;99.90;;;;;;5151394;27;20655;-63
2021/10/31 05:50:08;;;;;;;1.67;1.55;;;3.60;99.90;;;;;;5146404;27;20064;-63
2021/10/31 05:52:34;;;;;;;5.75;2.03;;;3.60;99.90;;;;;;5141078;27;20023;-63
2021/10/31 05:55:01;;;;;;;2.63;1.95;;;3.50;99.90;;;;;;5139990;27;20030;-64
2021/10/31 05:57:27;;;;;;;1.65;1.50;;;3.50;99.90;;;;;;5133624;27;20019;-63
2021/10/31 05:59:54;;;;;;;2.22;1.55;;;4.30;99.90;;;;;;5133301;27;20088;-64
2021/10/31 06:02:19;;;;;;;1.60;1.50;;;4.50;99.90;;;;;;5133642;27;20019;-63
2021/10/31 06:04:46;;;;;;;1.60;1.50;;;4.30;99.90;;;;;;5133736;27;20020;-63
2021/10/31 06:07:13;;;;;;;1.63;1.48;;;4.00;99.90;;;;;;5133439;27;20110;-63
2021/10/31 06:09:39;;;;;;;1.50;1.40;;;3.80;99.90;;;;;;5134387;27;20072;-63
2021/10/31 06:12:06;;;;;;;1.60;1.50;;;3.80;99.90;;;;;;5145885;27;20030;-63
2021/10/31 06:14:34;;;;;;;1.52;1.42;;;3.70;99.90;;;;;;5133448;27;20077;-63
2021/10/31 06:17:00;;;;;;;1.50;1.40;;;3.60;99.90;;;;;;5133102;27;20059;-63
2021/10/31 06:19:26;;;;;;;1.25;1.15;;;3.60;99.90;;;;;;5133269;27;20390;-63
2021/10/31 06:21:52;;;;;;;6.30;2.20;;;3.50;99.90;;;;;;5132879;27;20023;-63
2021/10/31 06:24:17;;;;;;;2.88;1.83;;;3.50;99.90;;;;;;5133227;27;20075;-64
2021/10/31 06:26:43;;;;;;;2.30;2.00;;;4.10;99.90;;;;;;5132964;27;20106;-64
2021/10/31 06:29:12;;;;;;;1.48;1.20;;;4.30;99.90;;;;;;5133154;27;20094;-65
2021/10/31 06:31:38;;;;;;;2.40;1.38;;;4.10;99.90;;;;;;5133087;27;20023;-64
2021/10/31 06:34:04;;;;;;;1.88;1.40;;;3.90;99.90;;;;;;5132985;27;20023;-65
2021/10/31 06:36:29;;;;;;;1.52;1.42;;;3.80;99.90;;;;;;5133146;27;20101;-65
2021/10/31 06:38:55;;;;;;;1.77;1.20;;;3.50;99.90;;;;;;5132261;27;20497;-66
2021/10/31 06:41:21;;;;;;;1.50;1.40;;;3.50;99.90;;;;;;5133153;27;20023;-65
2021/10/31 06:43:47;;;;;;;1.38;1.27;;;3.40;99.90;;;;;;5132866;28;20027;-66
2021/10/31 06:46:13;;;;;;;1.30;1.20;;;3.40;99.90;;;;;;5130408;28;20022;-66
2021/10/31 06:48:39;;;;;;;1.42;1.33;;;3.40;99.90;;;;;;5128871;28;20443;-65
2021/10/31 06:51:04;;;;;;;1.73;1.45;;;3.40;99.90;;;;;;5132149;27;20027;-65
2021/10/31 06:53:30;;;;;;;3.35;1.63;;;3.30;99.90;;;;;;5132496;27;20026;-65
2021/10/31 06:55:56;;;;;;;2.05;1.85;;;3.20;99.90;;;;;;5132447;28;20050;-65
2021/10/31 06:58:22;;;;;;;2.47;1.92;;;3.10;99.90;;;;;;5132058;28;20039;-66
2021/10/31 07:00:47;;;;;;;3.78;1.90;;;3.00;99.90;;;;;;5131905;27;20039;-63
2021/10/31 07:03:13;;;;;;;4.55;1.90;;;3.10;99.90;;;;;;5152901;27;20019;-63
2021/10/31 07:05:39;;;;;;;1.98;1.77;;;3.10;99.90;;;;;;5153322;27;20018;-63
2021/10/31 07:08:05;;;;;;;1.92;1.73;;;3.10;99.90;;;;;;5152837;27;20470;-64
2021/10/31 07:10:30;;;;;;;2.58;1.63;;;3.10;99.90;;;;;;5153257;27;20164;-64
2021/10/31 07:12:56;;;;;;;2.97;1.73;;;3.20;99.90;;;;;;5153162;27;20070;-65
2021/10/31 07:15:22;;;;;;;2.60;1.65;;;3.20;99.90;;;;;;5152945;27;20594;-65
2021/10/31 07:17:48;;;;;;;1.45;1.35;;;3.20;99.90;;;;;;5149945;27;20027;-64
2021/10/31 07:20:14;;;;;;;1.63;1.52;;;3.20;99.90;;;;;;5132008;28;20056;-65
2021/10/31 07:22:41;;;;;;;3.25;2.35;;;3.10;99.90;;;;;;5132066;28;20027;-67
2021/10/31 07:25:08;;;;;;;6.93;4.10;;;3.10;99.90;;;;;;5132182;27;20023;-68
2021/10/31 07:27:34;;;;;;;5.75;2.97;;;3.10;99.90;;;;;;5131893;28;20030;-67
2021/10/31 07:30:00;;;;;;;3.28;2.97;;;3.20;99.90;;;;;;5132261;28;20023;-67
2021/10/31 07:32:27;;;;;;;4.22;3.17;;;3.20;99.90;;;;;;5132065;28;20383;-67
2021/10/31 07:34:53;;;;;;;4.82;2.92;;;3.20;99.90;;;;;;5132284;28;20118;-67
2021/10/31 07:37:19;;;;;;;3.58;2.63;;;3.20;99.90;;;;;;5131994;28;20461;-65
2021/10/31 07:39:45;;;;;;;4.20;2.92;;;3.30;99.90;;;;;;5132301;28;20387;-66
2021/10/31 07:42:13;;;;;;;3.13;2.65;;;3.30;99.90;;;;;;5132107;27;20027;-66
2021/10/31 07:44:39;;;;;;;6.63;1.92;;;3.30;99.90;;;;;;5132080;28;20015;-65
2021/10/31 07:47:04;;;;;;;2.10;1.85;;;3.30;99.90;;;;;;5131676;28;20023;-65
2021/10/31 07:49:30;;;;;;;2.08;1.63;;;3.30;99.90;;;;;;5132013;27;20130;-66
2021/10/31 07:51:56;;;;;;;1.80;1.70;;;3.30;99.90;;;;;;5133967;27;20023;-65
2021/10/31 07:54:25;;;;;;;2.33;1.80;;;3.30;99.90;;;;;;5135540;27;20023;-65
2021/10/31 07:56:54;;;;;;;2.05;1.50;;;3.30;99.90;;;;;;5135233;27;20027;-65
2021/10/31 07:59:19;;;;;;;1.35;1.20;;;3.40;99.90;;;;;;5135441;27;20042;-66
2021/10/31 08:01:45;;;;;;;1.60;1.42;;;3.40;99.90;;;;;;5135516;27;20019;-65
2021/10/31 08:04:12;;;;;;;1.75;1.65;;;3.40;99.90;;;;;;5135818;27;20027;-66
2021/10/31 08:06:38;;;;;;;1.77;1.60;;;3.30;99.90;;;;;;5135284;27;20027;-66
2021/10/31 08:09:04;;;;;;;2.30;1.80;;;3.20;99.90;;;;;;5135111;27;20031;-65
2021/10/31 08:11:29;;;;;;;2.05;1.85;;;3.20;99.90;;;;;;5134992;27;20439;-65
2021/10/31 08:13:55;;;;;;;1.95;1.77;;;3.30;99.90;;;;;;5152301;27;20482;-66
2021/10/31 08:16:22;;;;;;;1.92;1.67;;;3.30;99.90;;;;;;5156097;27;20023;-66
2021/10/31 08:18:48;;;;;;;2.15;1.92;;;3.30;99.90;;;;;;5154330;27;20033;-66
2021/10/31 08:21:14;;;;;;;3.58;1.95;;;3.30;99.90;;;;;;5155583;27;20035;-66
2021/10/31 08:23:40;;;;;;;3.25;2.00;;;3.30;99.90;;;;;;5155989;27;20101;-65
2021/10/31 08:26:06;;;;;;;3.25;1.98;;;3.20;99.90;;;;;;5155646;27;20030;-66
2021/10/31 08:28:35;;;;;;;2.65;1.88;;;3.30;99.90;;;;;;5155666;27;20690;-66
2021/10/31 08:31:01;;;;;;;2.58;2.10;;;3.30;99.90;;;;;;5154167;27;20075;-66
2021/10/31 08:33:32;;;;;;;4.38;1.90;;;3.30;99.90;;;;;;5155783;27;20027;-65
2021/10/31 08:35:59;;;;;;;2.10;1.80;;;3.40;99.90;;;;;;5155561;27;20026;-66
2021/10/31 08:38:25;;;;;;;2.17;1.98;;;3.40;99.90;;;;;;5152133;27;20043;-66
2021/10/31 08:40:53;;;;;;;4.22;2.20;;;3.50;99.90;;;;;;5136833;27;20023;-66
2021/10/31 08:43:20;;;;;;;6.00;2.40;;;3.50;99.90;;;;;;5134819;27;20027;-65
2021/10/31 08:45:47;;;;;;;2.88;2.25;;;3.40;99.90;;;;;;5134659;27;20102;-66
2021/10/31 08:48:15;;;;;;;2.83;2.08;;;3.40;99.90;;;;;;5134803;27;20027;-66
2021/10/31 08:50:41;;;;;;;1.95;1.75;;;3.90;99.90;;;;;;5134421;27;20023;-66
2021/10/31 08:53:07;;;;;;;2.65;1.88;;;5.00;99.90;;;;;;5127437;27;20098;-67
2021/10/31 08:55:35;;;;;;;3.78;1.70;;;5.70;99.90;;;;;;5134063;27;20031;-66
2021/10/31 08:58:04;;;;;;;2.25;1.40;;;6.20;99.90;;;;;;5134238;27;20543;-67
2021/10/31 09:00:30;;;;;;;3.50;1.52;;;6.50;99.90;;;;;;5134476;27;20034;-66
2021/10/31 09:02:55;;;;;;;2.22;1.88;;;6.70;99.90;;;;;;5134343;27;20375;-67
2021/10/31 09:05:21;;;;;;;2.00;1.60;;;6.80;99.90;;;;;;5138586;27;20524;-66
2021/10/31 09:07:47;;;;;;;2.45;1.70;;;7.00;99.90;;;;;;5132923;27;20100;-66
2021/10/31 09:10:12;;;;;;;2.63;1.67;;;7.00;99.90;;;;;;5134483;27;20466;-66
2021/10/31 09:12:38;;;;;;;1.65;1.55;;;7.20;99.90;;;;;;5134527;27;20030;-66
2021/10/31 09:15:04;;;;;;;2.35;1.80;;;7.30;99.90;;;;;;5134324;27;20019;-66
2021/10/31 09:17:30;;;;;;;2.72;1.42;;;7.40;99.90;;;;;;5134040;27;20699;-66
2021/10/31 09:19:56;;;;;;;1.80;1.27;;;7.50;99.90;;;;;;5133949;27;20119;-66
2021/10/31 09:22:23;;;;;;;1.60;1.50;;;7.60;99.90;;;;;;5134001;27;20102;-66
2021/10/31 09:24:50;;;;;;;1.60;1.50;;;7.70;99.90;;;;;;5133827;27;20031;-66
2021/10/31 09:27:16;;;;;;;3.85;2.00;;;7.80;99.90;;;;;;5132439;27;20072;-66
2021/10/31 09:29:42;;;;;;;2.72;1.85;;;7.80;99.90;;;;;;5133766;27;20035;-66
2021/10/31 09:32:08;;;;;;;2.42;2.22;;;7.80;99.90;;;;;;5133824;27;20023;-65
2021/10/31 09:34:34;;;;;;;1.83;1.70;;;7.90;99.90;;;;;;5134162;27;20080;-65
2021/10/31 09:37:01;;;;;;;1.92;1.65;;;7.90;99.90;;;;;;5133782;27;20390;-65
2021/10/31 09:39:27;;;;;;;2.30;2.10;;;8.00;99.90;;;;;;5138929;27;20125;-65
2021/10/31 09:41:53;;;;;;;1.95;1.52;;;7.90;99.90;;;;;;5139421;27;20019;-65
2021/10/31 09:46:45;;;;;;;3.42;1.92;;;8.00;99.90;;;;;;5133859;27;20019;-66
2021/10/31 09:49:12;;;;;;;2.22;1.60;;;7.70;99.90;;;;;;5134031;27;20030;-66
2021/10/31 09:51:40;;;;;;;2.10;1.70;;;7.80;99.90;;;;;;5133653;27;20023;-66
2021/10/31 09:54:07;;;;;;;1.40;1.30;;;8.00;99.90;;;;;;5133568;27;20038;-66
2021/10/31 09:56:37;;;;;;;1.65;1.45;;;8.10;99.90;;;;;;5135760;27;20034;-65
2021/10/31 09:59:04;;;;;;;1.98;1.77;;;8.10;99.90;;;;;;5143804;27;20051;-66
2021/10/31 10:01:57;;;;;;;8.00;2.00;;;7.60;99.90;;;;;;5142817;27;20419;-66
2021/10/31 10:04:31;;;;;;;3.65;1.80;;;7.20;99.90;;;;;;5140964;27;20023;-66
2021/10/31 10:06:58;;;;;;;3.70;2.10;;;7.30;99.90;;;;;;5146407;27;20541;-66
2021/10/31 10:09:26;;;;;;;4.15;2.30;;;7.50;99.90;;;;;;5143981;27;20057;-66
2021/10/31 10:11:52;;;;;;;5.25;2.20;;;7.70;99.90;;;;;;5142002;27;20035;-66
2021/10/31 10:14:37;;;;;;;2.88;2.05;;;7.90;99.90;;;;;;5143424;27;20023;-66
2021/10/31 10:17:10;;;;;;;2.80;1.90;;;8.00;99.90;;;;;;5141791;27;20023;-66
2021/10/31 10:19:52;;;;;;;2.53;2.15;;;8.10;99.90;;;;;;5113073;28;20523;-65
2021/10/31 10:22:21;;;;;;;2.95;2.25;;;8.10;99.90;;;;;;5112578;28;20505;-64
2021/10/31 10:24:59;;;;;;;2.15;1.83;;;7.70;99.90;;;;;;5112748;28;20073;-65
2021/10/31 10:27:30;;;;;;;2.58;2.17;;;7.30;99.90;;;;;;5112610;28;20016;-64
2021/10/31 10:29:57;;;;;;;3.78;2.70;;;6.90;99.90;;;;;;5112775;28;20032;-65
2021/10/31 10:32:25;;;;;;;3.67;2.60;;;6.60;99.90;;;;;;5112483;28;20046;-64
2021/10/31 10:34:59;;;;;;;3.90;2.63;;;6.40;99.90;;;;;;5112497;28;20030;-65
2021/10/31 10:37:27;;;;;;;5.70;2.88;;;6.30;99.90;;;;;;5112348;28;20038;-65
2021/10/31 10:40:09;;;;;;;4.78;2.70;;;6.20;99.90;;;;;;5112506;28;20384;-65
2021/10/31 10:42:36;;;;;;;5.70;2.45;;;6.10;99.90;;;;;;5112761;28;20023;-65
2021/10/31 10:45:08;;;;;;;7.60;3.08;;;6.00;99.90;;;;;;5112317;28;20031;-65
2021/10/31 10:47:44;;;;;;;9.20;3.33;;;5.80;99.90;;;;;;5128368;27;20041;-65
2021/10/31 10:50:37;;;;;;;12.82;3.60;;;5.70;99.90;;;;;;5140839;27;20015;-65
2021/10/31 10:53:13;;;;;;;7.28;3.13;;;5.60;99.90;;;;;;5143569;27;20098;-65
2021/10/31 10:55:39;;;;;;;7.25;3.58;;;5.60;99.90;;;;;;5143780;27;20042;-65
2021/10/31 10:58:14;;;;;;;8.23;3.80;;;5.60;99.90;;;;;;5142656;27;20051;-65
2021/10/31 11:00:43;;;;;;;6.18;3.60;;;5.60;99.90;;;;;;5127081;27;20039;-65
2021/10/31 11:03:13;;;;;;;4.80;3.70;;;5.60;99.90;;;;;;5138039;27;20024;-64
2021/10/31 11:05:59;;;;;;;6.70;3.88;;;5.60;99.90;;;;;;5138377;27;20015;-65
2021/10/31 11:08:25;;;;;;;10.07;4.00;;;5.60;99.90;;;;;;5123208;27;20023;-65
2021/10/31 11:10:58;;;;;;;7.88;4.07;;;5.60;99.90;;;;;;5138539;27;20030;-65
2021/10/31 11:13:26;;;;;;;7.43;4.07;;;5.60;99.90;;;;;;5129256;27;20062;-65
2021/10/31 11:15:53;;;;;;;7.90;4.57;;;5.60;99.90;;;;;;5121424;28;20076;-64
2021/10/31 11:18:19;;;;;;;6.05;4.15;;;5.60;99.90;;;;;;5131147;27;20026;-66
2021/10/31 11:20:47;;;;;;;6.28;4.35;;;5.60;99.90;;;;;;5153284;27;20049;-65
2021/10/31 11:23:21;;;;;;;10.10;4.30;;;5.50;99.90;;;;;;5153190;27;20022;-65
2021/10/31 11:25:49;;;;;;;7.22;4.32;;;5.50;99.90;;;;;;5143229;27;20535;-65
2021/10/31 11:28:17;;;;;;;15.05;5.47;;;5.50;99.90;;;;;;5130845;27;20034;-65
2021/10/31 11:30:45;;;;;;;8.65;5.20;;;5.40;99.90;;;;;;5136554;27;20031;-65
2021/10/31 11:33:11;;;;;;;10.15;6.50;;;5.40;99.90;;;;;;5136237;27;20363;-65
2021/10/31 11:35:38;;;;;;;10.35;5.30;;;5.40;99.90;;;;;;5136848;27;20023;-65
2021/10/31 11:38:13;;;;;;;16.50;5.47;;;5.40;99.90;;;;;;5134938;27;20019;-65
2021/10/31 11:41:07;;;;;;;9.23;5.40;;;5.30;99.90;;;;;;5136795;27;20035;-65
2021/10/31 11:43:34;;;;;;;9.77;5.25;;;5.30;99.90;;;;;;5136248;27;20065;-65
2021/10/31 11:46:01;;;;;;;8.98;5.38;;;5.30;99.90;;;;;;5135961;27;20053;-65
2021/10/31 11:48:28;;;;;;;6.43;4.85;;;5.30;99.90;;;;;;5135915;27;20023;-65
2021/10/31 11:51:03;;;;;;;8.38;4.80;;;5.30;99.90;;;;;;5135927;27;20058;-65
2021/10/31 11:53:37;;;;;;;6.38;4.70;;;5.30;99.90;;;;;;5136236;27;20460;-67
2021/10/31 11:56:15;;;;;;;7.43;4.57;;;5.40;99.90;;;;;;5135942;27;20058;-70
2021/10/31 11:58:46;;;;;;;5.30;3.78;;;5.40;99.90;;;;;;5135927;27;20403;-64
2021/10/31 12:01:19;;;;;;;8.88;6.45;;;6.70;99.90;;;;;;5135859;27;20067;-64
2021/10/31 12:03:55;;;;;;;5.15;3.78;;;6.80;99.90;;;;;;5136119;27;20023;-64
2021/10/31 12:06:26;;;;;;;4.38;2.72;;;6.50;99.90;;;;;;5136018;27;20035;-64
2021/10/31 12:08:56;;;;;;;11.05;9.98;;;6.30;99.90;;;;;;5135727;27;20023;-64
2021/10/31 12:11:31;;;;;;;4.70;4.20;;;6.10;99.90;;;;;;5135606;27;20042;-64
2021/10/31 12:14:08;;;;;;;3.90;3.03;;;5.90;99.90;;;;;;5135604;27;20068;-64
2021/10/31 12:16:54;;;;;;;3.22;2.70;;;5.80;99.90;;;;;;5135616;27;20031;-64
2021/10/31 12:19:36;;;;;;;3.45;2.70;;;5.60;99.90;;;;;;5135404;27;20049;-64
2021/10/31 12:22:19;;;;;;;2.90;2.60;;;5.50;99.90;;;;;;5135262;27;20106;-64
2021/10/31 12:24:49;;;;;;;3.97;2.90;;;5.40;99.90;;;;;;5135484;27;20487;-64
2021/10/31 12:27:16;;;;;;;3.03;2.40;;;5.40;99.90;;;;;;5133778;27;20015;-64
2021/10/31 12:29:46;;;;;;;3.47;2.22;;;5.40;99.90;;;;;;5135436;27;20386;-64
2021/10/31 12:32:19;;;;;;;3.33;2.35;;;5.40;99.90;;;;;;5134454;27;20041;-64
2021/10/31 12:34:53;;;;;;;2.47;2.25;;;5.30;99.90;;;;;;5134054;27;20027;-64
2021/10/31 12:37:22;;;;;;;2.92;2.30;;;5.30;99.90;;;;;;5134354;27;20110;-64
2021/10/31 12:39:48;;;;;;;2.13;1.67;;;5.30;99.90;;;;;;5135203;27;20041;-64
2021/10/31 12:42:46;;;;;;;2.70;2.30;;;5.30;99.90;;;;;;5135021;27;20019;-64
2021/10/31 12:45:16;;;;;;;2.20;2.00;;;5.20;99.90;;;;;;5134987;27;20027;-64
2021/10/31 12:47:43;;;;;;;2.03;1.83;;;5.10;99.90;;;;;;5135069;27;20031;-64
2021/10/31 12:50:16;;;;;;;3.70;1.90;;;5.10;99.90;;;;;;5133636;27;20110;-64
2021/10/31 12:52:43;;;;;;;1.63;1.52;;;5.00;99.90;;;;;;5134969;27;20048;-64
2021/10/31 12:55:21;;;;;;;2.17;1.98;;;5.00;99.90;;;;;;5135134;27;20030;-64
2021/10/31 12:57:54;;;;;;;1.98;1.77;;;5.00;99.90;;;;;;5135153;27;20027;-64
2021/10/31 13:00:21;;;;;;;1.90;1.75;;;5.00;99.90;;;;;;5135125;27;20039;-64
2021/10/31 13:02:52;;;;;;;1.75;1.65;;;4.90;99.90;;;;;;5134900;27;20102;-64
2021/10/31 13:05:29;;;;;;;4.50;1.60;;;4.90;99.90;;;;;;5134744;27;20127;-64
2021/10/31 13:07:57;;;;;;;2.10;1.90;;;4.80;99.90;;;;;;5134785;27;20103;-64
2021/10/31 13:10:41;;;;;;;1.40;1.30;;;4.80;99.90;;;;;;5134800;27;20102;-64
2021/10/31 13:13:08;;;;;;;1.60;1.40;;;4.70;99.90;;;;;;5134310;27;20034;-64
2021/10/31 13:15:40;;;;;;;1.60;1.50;;;4.70;99.90;;;;;;5134876;27;20030;-64
2021/10/31 13:18:24;;;;;;;5.40;1.42;;;4.60;99.90;;;;;;5133030;27;20066;-64
2021/10/31 13:21:00;;;;;;;1.63;1.52;;;4.60;99.90;;;;;;5134206;27;20035;-64
2021/10/31 13:23:28;;;;;;;2.10;1.45;;;4.60;99.90;;;;;;5134362;27;20019;-64
2021/10/31 13:25:59;;;;;;;2.38;1.60;;;4.60;99.90;;;;;;5134265;27;20023;-64
2021/10/31 13:28:30;;;;;;;2.55;1.60;;;4.60;99.90;;;;;;5134100;27;20027;-64
2021/10/31 13:31:00;;;;;;;2.40;1.60;;;4.60;99.90;;;;;;5134437;27;20355;-64
2021/10/31 13:33:36;;;;;;;1.85;1.75;;;4.60;99.90;;;;;;5134142;27;20059;-64
2021/10/31 13:36:19;;;;;;;2.95;2.20;;;4.60;99.90;;;;;;5134201;27;20076;-64
2021/10/31 13:38:58;;;;;;;4.13;2.97;;;4.70;99.90;;;;;;5133840;27;20023;-64
2021/10/31 13:41:33;;;;;;;2.80;2.00;;;4.80;99.90;;;;;;5134276;27;20027;-64